Time;durP1;ratioP1;P1;durP2;ratioP2;P2;SDS_P1;SDS_P2;PMS_P1;PMS_P2;Temp;Humidity;BMP_temperature;BMP_pressure;BME280_temperature;BME280_humidity;BME280_pressure;Samples;Min_cycle;Max_cycle;Signal;HPM_P1;HPM_P2
2022/01/19 00:00:08;;;;;;;110.57;39.55;;;5.00;99.90;;;;;;4973799;28;20060;-86
2022/01/19 00:02:33;;;;;;;125.82;41.17;;;5.10;99.90;;;;;;4991405;28;20468;-85
2022/01/19 00:04:59;;;;;;;104.65;29.60;;;5.10;99.90;;;;;;4991261;28;20045;-85
2022/01/19 00:07:25;;;;;;;129.00;41.13;;;5.20;99.90;;;;;;4990782;28;20138;-84
2022/01/19 00:09:50;;;;;;;134.98;44.42;;;5.20;99.90;;;;;;4991154;28;20064;-86
2022/01/19 00:12:16;;;;;;;120.47;38.15;;;5.10;99.90;;;;;;4990726;28;20111;-84
2022/01/19 00:14:42;;;;;;;118.47;38.95;;;5.30;99.90;;;;;;4973740;28;20042;-84
2022/01/19 00:17:07;;;;;;;136.98;42.38;;;5.30;99.90;;;;;;4973362;28;20084;-85
2022/01/19 00:19:33;;;;;;;130.38;41.75;;;5.20;99.90;;;;;;4990912;28;20046;-84
2022/01/19 00:21:58;;;;;;;130.80;40.85;;;5.20;99.90;;;;;;4973317;28;20054;-84
2022/01/19 00:24:24;;;;;;;116.35;38.60;;;5.20;99.90;;;;;;4972970;28;20043;-85
2022/01/19 00:26:50;;;;;;;133.68;40.50;;;5.40;99.90;;;;;;4973581;28;20065;-85
2022/01/19 00:29:15;;;;;;;120.63;37.65;;;5.10;99.90;;;;;;4990354;28;20051;-85
2022/01/19 00:31:41;;;;;;;104.88;36.63;;;5.10;99.90;;;;;;4973687;28;20038;-85
2022/01/19 00:34:07;;;;;;;101.50;36.20;;;5.10;99.90;;;;;;4973478;28;20050;-85
2022/01/19 00:36:33;;;;;;;108.45;37.33;;;5.10;99.90;;;;;;4990258;28;20058;-85
2022/01/19 00:38:58;;;;;;;103.22;36.80;;;5.10;99.90;;;;;;4990655;28;20054;-85
2022/01/19 00:41:24;;;;;;;102.20;36.45;;;5.00;99.90;;;;;;4972916;28;20046;-85
2022/01/19 00:43:50;;;;;;;112.20;34.53;;;5.00;99.90;;;;;;4973213;28;20057;-85
2022/01/19 00:46:15;;;;;;;101.28;33.47;;;5.00;99.90;;;;;;4972721;28;20055;-85
2022/01/19 00:48:41;;;;;;;99.18;34.28;;;5.00;99.90;;;;;;4990839;28;20057;-85
2022/01/19 00:51:07;;;;;;;83.13;30.95;;;5.00;99.90;;;;;;4973057;28;20458;-85
2022/01/19 00:53:33;;;;;;;79.40;30.02;;;5.00;99.90;;;;;;4972814;28;20054;-85
2022/01/19 00:55:59;;;;;;;79.40;28.65;;;5.10;99.90;;;;;;4990290;28;20046;-85
2022/01/19 00:58:24;;;;;;;86.72;30.27;;;5.10;99.90;;;;;;4989886;28;20108;-85
2022/01/19 01:00:50;;;;;;;81.28;32.33;;;5.10;99.90;;;;;;4973215;28;20046;-85
2022/01/19 01:03:16;;;;;;;89.50;30.15;;;5.10;99.90;;;;;;4956731;28;20055;-85
2022/01/19 01:05:42;;;;;;;67.13;25.88;;;5.10;99.90;;;;;;4990686;28;20042;-85
2022/01/19 01:08:08;;;;;;;78.70;29.38;;;5.20;99.90;;;;;;5000788;28;20057;-84
2022/01/19 01:10:41;;;;;;;84.13;28.63;;;5.20;99.90;;;;;;4992880;28;20500;-85
2022/01/19 01:13:21;;;;;;;80.77;29.10;;;5.20;99.90;;;;;;4973161;28;20046;-85
2022/01/19 01:15:49;;;;;;;83.28;29.17;;;5.20;99.90;;;;;;4990815;28;20080;-84
2022/01/19 01:18:18;;;;;;;76.90;28.67;;;5.20;99.90;;;;;;4972971;28;20589;-86
2022/01/19 01:20:44;;;;;;;66.05;26.30;;;5.20;99.90;;;;;;4990210;28;20498;-85
2022/01/19 01:23:10;;;;;;;76.10;28.60;;;5.10;99.90;;;;;;4956889;28;20061;-86
2022/01/19 01:25:36;;;;;;;80.78;28.08;;;5.20;99.90;;;;;;4924611;28;20046;-85
2022/01/19 01:28:02;;;;;;;76.38;28.55;;;5.00;99.90;;;;;;4972972;28;20046;-85
2022/01/19 01:30:28;;;;;;;79.25;29.30;;;5.00;99.90;;;;;;4972290;28;20058;-84
2022/01/19 01:32:54;;;;;;;66.90;25.20;;;5.50;99.90;;;;;;4956819;28;20054;-85
2022/01/19 01:35:19;;;;;;;66.60;25.88;;;5.10;99.90;;;;;;4972186;28;20046;-85
2022/01/19 01:37:45;;;;;;;73.65;27.38;;;5.00;99.90;;;;;;4971761;28;20058;-85
2022/01/19 01:40:13;;;;;;;79.70;29.05;;;5.10;99.90;;;;;;4989759;28;20081;-85
2022/01/19 01:42:39;;;;;;;81.60;28.77;;;5.00;99.90;;;;;;4972471;28;20076;-84
2022/01/19 01:45:10;;;;;;;76.72;27.13;;;5.00;99.90;;;;;;4972492;28;20054;-85
2022/01/19 01:47:41;;;;;;;79.35;26.02;;;4.90;99.90;;;;;;4957079;28;20120;-84
2022/01/19 01:55:20;;;;;;;74.82;26.90;;;4.90;99.90;;;;;;4975015;28;20058;-84
2022/01/19 01:57:46;;;;;;;77.05;28.90;;;5.00;99.90;;;;;;4989488;28;20586;-84
2022/01/19 02:00:15;;;;;;;76.97;28.33;;;5.00;99.90;;;;;;4989445;28;20050;-85
2022/01/19 02:02:41;;;;;;;84.05;28.70;;;5.00;99.90;;;;;;4971849;28;20821;-85
2022/01/19 02:05:09;;;;;;;76.22;27.77;;;5.00;99.90;;;;;;4972253;28;20057;-85
2022/01/19 02:23:55;;;;;;;92.05;30.52;;;5.70;99.90;;;;;;4971809;28;20517;-86
2022/01/19 02:26:46;;;;;;;100.03;32.05;;;5.00;99.90;;;;;;4972017;28;20651;-85
2022/01/19 02:29:46;;;;;;;95.53;31.38;;;5.00;99.90;;;;;;4988036;28;20054;-85
2022/01/19 02:40:22;;;;;;;86.53;31.70;;;5.40;99.90;;;;;;4974285;28;20050;-85
2022/01/19 02:51:06;;;;;;;;;;;4.90;99.90;;;;;;4969022;28;20046;-85
2022/01/19 02:53:33;;;;;;;73.47;27.65;;;4.90;99.90;;;;;;4968137;28;19926;-85
2022/01/19 02:55:59;;;;;;;101.82;33.17;;;4.80;99.90;;;;;;4968193;28;20059;-84
2022/01/19 02:58:25;;;;;;;100.15;33.70;;;4.80;99.90;;;;;;4969561;28;20100;-84
2022/01/19 03:09:04;;;;;;;97.18;33.15;;;4.70;99.90;;;;;;4968538;28;20373;-85
2022/01/19 03:11:29;;;;;;;90.53;32.38;;;4.70;99.90;;;;;;4970615;28;20056;-83
2022/01/19 03:13:55;;;;;;;94.82;35.75;;;4.70;99.90;;;;;;4976806;28;20077;-85
2022/01/19 03:16:21;;;;;;;91.68;34.88;;;4.60;99.90;;;;;;4968083;28;20492;-85
2022/01/19 03:18:50;;;;;;;97.35;33.85;;;6.20;99.90;;;;;;4968873;28;20459;-84
2022/01/19 03:21:17;;;;;;;98.82;34.88;;;4.70;99.90;;;;;;4968841;28;20042;-85
2022/01/19 03:23:42;;;;;;;114.95;39.08;;;4.80;99.90;;;;;;4967499;28;20066;-84
2022/01/19 03:26:08;;;;;;;103.65;37.20;;;4.50;99.90;;;;;;4967672;28;20062;-84
2022/01/19 03:28:34;;;;;;;105.88;38.83;;;4.50;99.90;;;;;;4968511;28;20133;-85
2022/01/19 03:31:00;;;;;;;108.72;38.35;;;4.50;99.90;;;;;;4967809;28;20047;-85
2022/01/19 03:33:25;;;;;;;110.93;36.22;;;4.50;99.90;;;;;;4967858;28;20058;-84
2022/01/19 03:35:51;;;;;;;109.28;36.63;;;4.50;99.90;;;;;;4968575;28;20084;-85
2022/01/19 03:38:17;;;;;;;101.20;37.85;;;4.50;99.90;;;;;;4968792;28;20054;-84
2022/01/19 03:40:42;;;;;;;112.22;38.08;;;4.60;99.90;;;;;;4967289;28;20050;-85
2022/01/19 03:43:08;;;;;;;107.78;36.20;;;4.60;99.90;;;;;;4951644;28;20087;-84
2022/01/19 03:45:34;;;;;;;117.45;38.00;;;4.60;99.90;;;;;;4935754;28;20563;-84
2022/01/19 03:50:44;;;;;;;109.45;39.28;;;4.50;99.90;;;;;;4972987;28;20179;-84
2022/01/19 03:53:10;;;;;;;111.53;38.47;;;4.60;99.90;;;;;;4987922;28;20054;-84
2022/01/19 03:55:36;;;;;;;113.13;39.17;;;4.50;99.90;;;;;;4987731;28;20133;-84
2022/01/19 03:58:02;;;;;;;115.53;40.47;;;4.50;99.90;;;;;;4954567;28;20058;-85
2022/01/19 04:00:28;;;;;;;122.20;40.72;;;4.40;99.90;;;;;;4989285;28;20400;-85
2022/01/19 04:02:54;;;;;;;108.25;36.83;;;4.40;99.90;;;;;;4990833;28;20054;-84
2022/01/19 04:05:40;;;;;;;118.40;40.35;;;4.60;99.90;;;;;;4991317;28;20087;-85
2022/01/19 04:08:05;;;;;;;120.38;40.10;;;4.50;99.90;;;;;;4991016;28;20061;-85
2022/01/19 04:10:31;;;;;;;92.40;34.20;;;4.50;99.90;;;;;;4974180;28;20050;-85
2022/01/19 04:13:09;;;;;;;111.22;37.15;;;4.50;99.90;;;;;;4990750;28;20082;-85
2022/01/19 04:15:36;;;;;;;122.15;39.58;;;4.50;99.90;;;;;;4973667;28;20054;-86
2022/01/19 04:18:03;;;;;;;111.15;39.80;;;4.60;99.90;;;;;;4973494;28;20115;-84
2022/01/19 04:20:29;;;;;;;114.18;39.83;;;4.40;99.90;;;;;;4990957;28;20069;-84
2022/01/19 04:22:54;;;;;;;112.40;40.80;;;4.30;99.90;;;;;;4990481;28;20539;-84
2022/01/19 04:25:20;;;;;;;108.70;40.28;;;4.40;99.90;;;;;;4973924;28;20082;-85
2022/01/19 04:27:46;;;;;;;114.00;39.15;;;4.30;99.90;;;;;;4990500;28;20058;-84
2022/01/19 04:30:13;;;;;;;101.97;36.03;;;4.40;99.90;;;;;;4973717;28;20050;-84
2022/01/19 04:35:28;;;;;;;92.88;36.67;;;4.30;99.90;;;;;;4976130;28;20333;-84
2022/01/19 04:38:17;;;;;;;88.40;36.42;;;4.40;99.90;;;;;;4941647;28;20100;-84
2022/01/19 04:46:47;;;;;;;97.93;37.70;;;4.30;99.90;;;;;;4973376;28;20065;-84
2022/01/19 05:05:24;;;;;;;124.55;42.42;;;4.20;99.90;;;;;;4975747;28;20047;-85
2022/01/19 05:15:44;;;;;;;107.53;38.08;;;4.20;99.90;;;;;;4991650;28;20049;-85
2022/01/19 05:18:09;;;;;;;113.03;39.60;;;4.30;99.90;;;;;;5002150;28;20046;-85
2022/01/19 05:20:35;;;;;;;118.70;40.80;;;4.20;99.90;;;;;;4973612;28;20078;-85
2022/01/19 05:23:01;;;;;;;108.13;40.03;;;4.20;99.90;;;;;;4972282;28;20051;-85
2022/01/19 05:25:26;;;;;;;108.68;40.28;;;5.40;99.90;;;;;;4990241;28;20487;-85
2022/01/19 05:27:52;;;;;;;114.63;41.08;;;4.20;99.90;;;;;;4989967;28;20104;-85
2022/01/19 05:30:18;;;;;;;117.22;41.53;;;4.40;99.90;;;;;;4972730;28;20262;-86
2022/01/19 05:32:47;;;;;;;120.30;41.78;;;4.20;99.90;;;;;;4972442;28;20051;-85
2022/01/19 05:35:12;;;;;;;102.90;39.40;;;4.50;99.90;;;;;;4972104;28;20047;-86
2022/01/19 05:37:38;;;;;;;112.93;40.20;;;4.40;99.90;;;;;;4990180;28;20061;-85
2022/01/19 05:40:07;;;;;;;108.95;41.10;;;4.50;99.90;;;;;;4989418;28;20065;-86
2022/01/19 05:42:33;;;;;;;102.90;39.58;;;4.20;99.90;;;;;;4956662;28;20062;-85
2022/01/19 05:44:59;;;;;;;115.43;42.03;;;4.20;99.90;;;;;;4972168;28;20055;-84
2022/01/19 05:47:24;;;;;;;114.38;43.03;;;4.10;99.90;;;;;;4972113;28;20393;-85
2022/01/19 05:49:50;;;;;;;116.70;42.30;;;4.10;99.90;;;;;;4989720;28;20476;-85
2022/01/19 05:52:16;;;;;;;109.82;43.85;;;4.10;99.90;;;;;;4971973;28;20050;-85
2022/01/19 05:54:41;;;;;;;110.13;42.20;;;4.20;99.90;;;;;;4972549;28;20054;-85
2022/01/19 05:57:07;;;;;;;104.28;42.33;;;4.30;99.90;;;;;;4955804;28;20225;-86
2022/01/19 05:59:33;;;;;;;105.20;42.47;;;4.20;99.90;;;;;;4940924;28;20054;-84
2022/01/19 06:01:59;;;;;;;97.22;40.60;;;4.10;99.90;;;;;;4971887;28;20058;-85
2022/01/19 06:04:25;;;;;;;105.90;42.13;;;4.20;99.90;;;;;;4972415;28;20069;-85
2022/01/19 06:06:53;;;;;;;105.18;40.13;;;4.20;99.90;;;;;;4972246;28;20042;-86
2022/01/19 06:12:09;;;;;;;96.88;40.30;;;4.30;99.90;;;;;;4967110;28;20050;-85
2022/01/19 06:14:36;;;;;;;102.13;42.17;;;4.20;99.90;;;;;;4989377;28;20079;-85
2022/01/19 06:17:03;;;;;;;102.55;40.88;;;4.20;99.90;;;;;;4971649;28;20417;-86
2022/01/19 06:19:28;;;;;;;102.95;41.80;;;4.20;99.90;;;;;;4971829;28;20511;-85
2022/01/19 06:21:54;;;;;;;92.80;40.38;;;4.20;99.90;;;;;;4989309;28;20085;-86
2022/01/19 06:24:20;;;;;;;91.65;39.05;;;4.30;99.90;;;;;;4955553;28;20094;-85
2022/01/19 06:26:45;;;;;;;96.82;40.75;;;4.30;99.90;;;;;;4971958;28;20103;-85
2022/01/19 06:29:11;;;;;;;98.13;42.05;;;4.40;99.90;;;;;;4955240;28;20058;-85
2022/01/19 06:31:37;;;;;;;99.97;43.67;;;4.60;99.90;;;;;;4989137;28;20046;-85
2022/01/19 06:34:02;;;;;;;91.50;41.10;;;5.30;99.90;;;;;;4971200;28;20046;-86
2022/01/19 06:36:28;;;;;;;99.88;40.10;;;4.40;99.90;;;;;;4989326;28;20046;-86
2022/01/19 06:38:54;;;;;;;101.15;42.13;;;4.30;99.90;;;;;;4989739;28;20486;-85
2022/01/19 06:41:19;;;;;;;88.85;37.90;;;4.80;99.90;;;;;;4971041;28;20058;-85
2022/01/19 06:43:45;;;;;;;105.55;43.05;;;4.40;99.90;;;;;;4988988;28;20408;-87
2022/01/19 06:46:10;;;;;;;95.78;40.30;;;4.30;99.90;;;;;;4988947;28;20099;-88
2022/01/19 06:48:36;;;;;;;94.97;42.33;;;4.70;99.90;;;;;;4988828;28;20065;-88
2022/01/19 06:51:02;;;;;;;95.72;40.78;;;4.80;99.90;;;;;;4970882;28;20085;-91
2022/01/19 06:53:27;;;;;;;89.32;42.22;;;4.30;99.90;;;;;;4955733;28;20050;-89
2022/01/19 06:55:57;;;;;;;95.18;40.60;;;4.30;99.90;;;;;;4989224;28;20089;-89
2022/01/19 06:58:26;;;;;;;90.15;40.20;;;5.10;99.90;;;;;;4955784;28;20046;-88
2022/01/19 07:00:52;;;;;;;92.60;41.70;;;4.30;99.90;;;;;;4955462;28;20050;-88
2022/01/19 07:03:18;;;;;;;96.72;40.75;;;4.30;99.90;;;;;;4955115;28;20123;-90
2022/01/19 07:05:44;;;;;;;91.28;39.45;;;4.20;99.90;;;;;;4972024;28;20042;-90
2022/01/19 07:08:09;;;;;;;98.20;41.10;;;4.20;99.90;;;;;;4954815;28;20263;-88
2022/01/19 07:10:35;;;;;;;92.40;38.47;;;4.30;99.90;;;;;;4968311;28;20518;-87
2022/01/19 07:13:01;;;;;;;87.72;39.15;;;4.40;99.90;;;;;;4971306;28;20663;-87
2022/01/19 07:15:27;;;;;;;91.43;40.25;;;4.30;99.90;;;;;;4955352;28;20055;-88
2022/01/19 07:17:53;;;;;;;88.15;38.10;;;4.30;99.90;;;;;;4989710;28;20081;-87
2022/01/19 07:20:19;;;;;;;93.32;40.55;;;4.30;99.90;;;;;;4990962;28;20082;-89
2022/01/19 07:22:44;;;;;;;82.55;38.63;;;5.20;99.90;;;;;;4942282;28;20072;-84
2022/01/19 07:25:10;;;;;;;85.68;39.00;;;4.30;99.90;;;;;;4973472;28;20046;-85
2022/01/19 07:27:36;;;;;;;81.07;37.97;;;4.40;99.90;;;;;;4972583;28;20112;-87
2022/01/19 07:30:03;;;;;;;84.68;39.28;;;4.70;99.90;;;;;;4989328;28;20442;-85
2022/01/19 07:32:33;;;;;;;81.80;38.13;;;4.40;99.90;;;;;;4969460;28;20129;-84
2022/01/19 07:34:59;;;;;;;81.22;36.50;;;4.40;99.90;;;;;;4987989;28;20057;-84
2022/01/19 07:37:24;;;;;;;79.55;37.40;;;4.50;99.90;;;;;;4970416;28;20480;-84
2022/01/19 07:39:50;;;;;;;84.82;36.50;;;5.30;99.90;;;;;;4972111;28;20054;-84
2022/01/19 07:42:16;;;;;;;82.55;37.70;;;4.40;99.90;;;;;;4954698;28;20496;-84
2022/01/19 07:44:41;;;;;;;80.93;38.20;;;4.40;99.90;;;;;;4972234;28;20082;-85
2022/01/19 07:47:07;;;;;;;81.00;36.42;;;4.30;99.90;;;;;;4972013;28;20077;-86
2022/01/19 07:49:33;;;;;;;78.80;32.30;;;4.30;99.90;;;;;;4955410;28;20488;-86
2022/01/19 07:51:59;;;;;;;78.13;38.20;;;4.40;99.90;;;;;;4972826;28;20050;-85
2022/01/19 07:54:24;;;;;;;82.90;37.45;;;4.30;99.90;;;;;;4954723;28;20549;-85
2022/01/19 07:56:50;;;;;;;80.22;38.05;;;4.40;99.90;;;;;;4972176;28;20039;-86
2022/01/19 07:59:16;;;;;;;84.22;37.70;;;4.40;99.90;;;;;;4954488;28;20109;-86
2022/01/19 08:01:42;;;;;;;81.22;36.33;;;4.30;99.90;;;;;;4954903;28;20107;-87
2022/01/19 08:04:08;;;;;;;80.80;35.72;;;4.20;99.90;;;;;;4938697;28;20522;-86
2022/01/19 08:06:34;;;;;;;85.18;38.10;;;4.20;99.90;;;;;;4938838;28;20130;-86
2022/01/19 08:09:00;;;;;;;83.07;37.78;;;4.20;99.90;;;;;;4972536;28;20052;-86
2022/01/19 08:11:25;;;;;;;78.85;38.58;;;4.30;99.90;;;;;;4973180;28;20399;-86
2022/01/19 08:13:51;;;;;;;79.45;38.63;;;4.70;99.90;;;;;;4991083;28;20052;-86
2022/01/19 08:16:17;;;;;;;75.25;34.78;;;4.30;99.90;;;;;;4956802;28;20507;-85
2022/01/19 08:18:42;;;;;;;76.45;37.42;;;4.30;99.90;;;;;;4991174;28;20038;-85
2022/01/19 08:21:08;;;;;;;83.28;38.65;;;4.30;99.90;;;;;;4991071;28;20549;-86
2022/01/19 08:23:34;;;;;;;82.53;38.55;;;4.30;99.90;;;;;;4957641;28;20108;-88
2022/01/19 08:25:59;;;;;;;81.80;39.40;;;4.20;99.90;;;;;;4990945;28;20042;-86
2022/01/19 08:28:25;;;;;;;80.93;37.17;;;4.30;99.90;;;;;;4973094;28;20050;-86
2022/01/19 08:30:51;;;;;;;76.97;36.58;;;4.10;99.90;;;;;;4973298;28;20129;-88
2022/01/19 08:33:17;;;;;;;80.57;36.70;;;4.20;99.90;;;;;;4973027;28;20445;-87
2022/01/19 08:35:42;;;;;;;72.28;36.70;;;4.30;99.90;;;;;;4991033;28;20078;-86
2022/01/19 08:38:08;;;;;;;79.28;35.50;;;4.20;99.90;;;;;;4974222;28;20255;-86
2022/01/19 08:40:36;;;;;;;78.47;36.40;;;4.30;99.90;;;;;;4973469;28;20097;-87
2022/01/19 08:43:02;;;;;;;71.00;34.80;;;4.20;99.90;;;;;;4991638;28;20095;-86
2022/01/19 08:45:28;;;;;;;70.75;32.78;;;4.30;99.90;;;;;;4972946;28;20046;-85
2022/01/19 08:47:53;;;;;;;68.95;34.47;;;4.30;99.90;;;;;;4989238;28;20145;-83
2022/01/19 08:50:19;;;;;;;67.68;34.47;;;4.30;99.90;;;;;;4990000;28;20140;-85
2022/01/19 08:52:45;;;;;;;68.90;36.03;;;4.30;99.90;;;;;;4990633;28;20051;-84
2022/01/19 08:55:11;;;;;;;69.78;35.30;;;4.20;99.90;;;;;;4990426;28;20043;-84
2022/01/19 08:57:37;;;;;;;68.95;34.30;;;4.20;99.90;;;;;;4956756;28;20413;-84
2022/01/19 09:00:05;;;;;;;62.85;34.88;;;4.20;99.90;;;;;;4973236;28;20042;-84
2022/01/19 09:02:30;;;;;;;67.18;35.22;;;4.20;99.90;;;;;;4972723;28;20050;-84
2022/01/19 09:04:56;;;;;;;76.50;34.95;;;4.40;99.90;;;;;;4973077;28;20054;-86
2022/01/19 09:07:22;;;;;;;69.90;34.35;;;4.40;99.90;;;;;;4972599;28;20047;-85
2022/01/19 09:09:47;;;;;;;64.47;33.03;;;4.80;99.90;;;;;;4990335;28;20563;-84
2022/01/19 09:12:13;;;;;;;67.57;35.40;;;4.80;99.90;;;;;;4972667;28;20054;-83
2022/01/19 09:14:39;;;;;;;72.35;36.65;;;5.00;99.90;;;;;;4972108;28;20065;-84
2022/01/19 09:17:08;;;;;;;70.53;35.00;;;4.40;99.90;;;;;;4989873;28;20095;-84
2022/01/19 09:19:35;;;;;;;68.07;34.60;;;4.40;99.90;;;;;;4989165;28;20116;-84
2022/01/19 09:22:03;;;;;;;71.07;36.03;;;4.50;99.90;;;;;;4972421;28;20056;-84
2022/01/19 09:24:29;;;;;;;68.75;35.17;;;4.40;99.90;;;;;;4956039;28;20119;-84
2022/01/19 09:26:55;;;;;;;70.45;35.20;;;4.50;99.90;;;;;;4956778;28;20731;-85
2022/01/19 09:29:21;;;;;;;71.25;36.50;;;4.50;99.90;;;;;;4989677;28;20138;-86
2022/01/19 09:31:46;;;;;;;67.82;35.38;;;4.50;99.90;;;;;;4956026;28;20089;-85
2022/01/19 09:34:15;;;;;;;70.47;36.92;;;4.50;99.90;;;;;;4972299;28;20077;-86
2022/01/19 09:36:45;;;;;;;64.28;36.03;;;4.60;99.90;;;;;;4956181;28;20053;-86
2022/01/19 09:39:12;;;;;;;64.93;36.08;;;4.60;99.90;;;;;;4956708;28;20054;-85
2022/01/19 09:41:37;;;;;;;63.22;35.10;;;4.60;99.90;;;;;;4971707;28;20050;-85
2022/01/19 09:44:03;;;;;;;63.97;35.35;;;4.70;99.90;;;;;;4956502;28;20050;-85
2022/01/19 09:46:29;;;;;;;65.50;36.10;;;4.80;99.90;;;;;;4971154;28;20049;-82
2022/01/19 09:48:57;;;;;;;62.45;35.50;;;4.80;99.90;;;;;;4956177;28;20062;-85
2022/01/19 09:51:22;;;;;;;66.32;35.47;;;4.80;99.90;;;;;;4988899;28;20057;-85
2022/01/19 09:53:48;;;;;;;59.78;33.72;;;4.80;99.90;;;;;;4954985;28;20050;-84
2022/01/19 09:56:18;;;;;;;68.00;37.13;;;4.80;99.90;;;;;;4971070;28;20050;-83
2022/01/19 09:58:44;;;;;;;57.65;31.67;;;4.70;99.90;;;;;;4987925;28;20047;-84
2022/01/19 10:01:10;;;;;;;60.70;33.38;;;4.80;99.90;;;;;;4988156;28;20056;-84
2022/01/19 10:03:35;;;;;;;70.60;36.33;;;4.80;99.90;;;;;;4988321;28;20042;-84
2022/01/19 10:06:07;;;;;;;68.45;38.15;;;4.80;99.90;;;;;;4971643;28;20061;-83
2022/01/19 10:08:37;;;;;;;69.03;38.45;;;4.90;99.90;;;;;;4971045;28;20060;-85
2022/01/19 10:11:12;;;;;;;66.20;38.25;;;4.90;99.90;;;;;;4971831;28;20050;-85
2022/01/19 10:19:15;;;;;;;67.93;38.45;;;5.20;99.90;;;;;;4974456;28;20065;-84
2022/01/19 10:22:00;;;;;;;69.38;38.60;;;4.90;99.90;;;;;;4988798;28;20399;-84
2022/01/19 10:24:40;;;;;;;72.68;39.42;;;4.90;99.90;;;;;;4955323;28;20054;-85
2022/01/19 10:27:27;;;;;;;72.97;40.90;;;4.90;99.90;;;;;;4988497;28;20050;-85
2022/01/19 10:30:21;;;;;;;69.07;37.63;;;5.00;99.90;;;;;;4988026;28;20137;-85
2022/01/19 10:32:48;;;;;;;65.97;37.22;;;5.20;99.90;;;;;;4971034;28;20138;-84
2022/01/19 10:35:17;;;;;;;69.88;39.17;;;5.00;99.90;;;;;;4971154;28;20058;-85
2022/01/19 10:37:44;;;;;;;69.18;39.47;;;5.10;99.90;;;;;;4988345;28;20183;-85
2022/01/19 10:40:15;;;;;;;67.97;38.17;;;5.10;99.90;;;;;;4988488;28;20046;-85
2022/01/19 10:42:40;;;;;;;70.78;40.13;;;5.10;99.90;;;;;;4970645;28;20054;-86
2022/01/19 10:45:07;;;;;;;68.85;38.30;;;5.10;99.90;;;;;;4971113;28;20503;-84
2022/01/19 10:47:39;;;;;;;68.65;39.55;;;5.10;99.90;;;;;;4988650;28;20070;-86
2022/01/19 10:50:25;;;;;;;74.72;40.60;;;5.30;99.90;;;;;;4988417;28;20074;-83
2022/01/19 10:52:52;;;;;;;;;;;5.10;99.90;;;;;;4956367;28;20086;-83
2022/01/19 10:55:27;;;;;;;64.78;38.83;;;5.20;99.90;;;;;;4955936;28;20387;-83
2022/01/19 10:57:52;;;;;;;70.65;37.95;;;5.20;99.90;;;;;;4970782;28;20100;-83
2022/01/19 11:00:23;;;;;;;73.43;42.47;;;5.30;99.90;;;;;;4971134;28;20050;-86
2022/01/19 11:02:51;;;;;;;74.18;42.92;;;5.30;99.90;;;;;;4955509;28;20061;-87
2022/01/19 11:05:17;;;;;;;69.57;41.58;;;5.40;99.90;;;;;;4988465;28;20126;-87
2022/01/19 11:07:43;;;;;;;73.13;41.80;;;5.30;99.90;;;;;;4970891;28;20055;-87
2022/01/19 11:10:17;;;;;;;71.00;40.25;;;5.30;99.90;;;;;;4970791;28;20060;-88
2022/01/19 11:12:47;;;;;;;72.47;42.17;;;5.40;99.90;;;;;;4972299;28;20054;-89
2022/01/19 11:15:20;;;;;;;75.00;43.60;;;5.40;99.90;;;;;;4971161;28;20130;-87
2022/01/19 11:17:47;;;;;;;79.53;42.97;;;5.30;99.90;;;;;;4987994;28;20484;-89
2022/01/19 11:20:14;;;;;;;78.47;43.55;;;5.30;99.90;;;;;;4955405;28;20050;-91
2022/01/19 11:23:18;;;;;;;74.75;43.28;;;5.30;99.90;;;;;;4987812;28;20046;-90
2022/01/19 11:26:01;;;;;;;79.60;45.78;;;5.30;99.90;;;;;;4954226;28;20052;-89
2022/01/19 11:28:28;;;;;;;85.83;46.43;;;5.30;99.90;;;;;;4970838;28;20046;-85
2022/01/19 11:30:55;;;;;;;83.85;45.28;;;5.10;99.90;;;;;;4969968;28;20112;-86
2022/01/19 11:33:28;;;;;;;77.57;40.67;;;5.20;99.90;;;;;;4987813;28;20066;-87
2022/01/19 11:36:00;;;;;;;86.18;44.20;;;5.20;99.90;;;;;;4953861;28;20416;-86
2022/01/19 11:38:49;;;;;;;88.40;46.63;;;5.20;99.90;;;;;;4970945;28;20046;-86
2022/01/19 11:41:14;;;;;;;93.43;46.38;;;5.20;99.90;;;;;;4988038;28;20050;-84
2022/01/19 11:43:54;;;;;;;91.72;48.53;;;5.10;99.90;;;;;;4987526;28;20051;-86
2022/01/19 11:46:29;;;;;;;90.70;46.22;;;5.30;99.90;;;;;;4987678;28;20099;-86
2022/01/19 11:48:56;;;;;;;87.00;44.60;;;5.20;99.90;;;;;;4987863;28;20050;-86
2022/01/19 11:51:38;;;;;;;87.57;44.08;;;5.30;99.90;;;;;;4987639;28;20157;-89
2022/01/19 11:54:19;;;;;;;93.20;48.22;;;5.20;99.90;;;;;;4955323;28;20058;-90
2022/01/19 11:57:02;;;;;;;94.47;48.35;;;5.10;99.90;;;;;;4988088;28;20107;-87
2022/01/19 11:59:30;;;;;;;94.95;46.15;;;5.20;99.90;;;;;;4971255;28;20058;-89
2022/01/19 12:02:21;;;;;;;93.93;46.63;;;5.20;99.90;;;;;;4970446;28;20515;-86
2022/01/19 12:04:59;;;;;;;91.32;48.63;;;5.40;99.90;;;;;;4970456;28;20050;-85
2022/01/19 12:07:40;;;;;;;93.47;43.10;;;5.30;99.90;;;;;;4988022;28;20060;-86
2022/01/19 12:10:30;;;;;;;96.68;46.83;;;5.40;99.90;;;;;;4987524;28;20518;-86
2022/01/19 12:13:25;;;;;;;98.15;48.47;;;5.30;99.90;;;;;;4987715;28;20057;-87
2022/01/19 12:15:56;;;;;;;97.50;50.58;;;5.40;99.90;;;;;;4954176;28;20061;-87
2022/01/19 12:18:49;;;;;;;98.90;46.40;;;5.30;99.90;;;;;;4987524;28;20096;-85
2022/01/19 12:21:33;;;;;;;102.82;49.17;;;5.40;99.90;;;;;;4971617;28;20410;-87
2022/01/19 12:24:13;;;;;;;102.15;47.50;;;5.40;99.90;;;;;;4973720;28;20129;-87
2022/01/19 12:26:55;;;;;;;108.97;49.38;;;5.40;99.90;;;;;;4990986;28;20050;-86
2022/01/19 12:29:33;;;;;;;106.00;50.78;;;5.40;99.90;;;;;;4991619;28;20162;-87
2022/01/19 12:32:00;;;;;;;109.10;53.75;;;5.90;99.90;;;;;;4990877;28;20058;-87
2022/01/19 12:34:26;;;;;;;97.40;48.50;;;5.50;99.90;;;;;;4957753;28;20101;-88
2022/01/19 12:36:56;;;;;;;89.72;41.83;;;5.50;99.90;;;;;;4992001;28;20042;-87
2022/01/19 12:39:24;;;;;;;109.45;51.45;;;5.60;99.90;;;;;;4966780;28;20086;-87
2022/01/19 12:41:58;;;;;;;107.60;50.88;;;5.40;99.90;;;;;;5012100;28;20080;-87
2022/01/19 12:44:39;;;;;;;102.15;50.95;;;5.30;99.90;;;;;;4974006;28;20086;-87
2022/01/19 12:49:52;;;;;;;118.45;54.55;;;5.60;99.90;;;;;;4989856;28;20054;-86
2022/01/19 12:52:18;;;;;;;112.97;51.85;;;5.40;99.90;;;;;;4973246;28;20689;-86
2022/01/19 12:54:44;;;;;;;104.57;46.22;;;5.40;99.90;;;;;;4957223;28;20455;-87
2022/01/19 12:57:15;;;;;;;111.85;50.92;;;5.40;99.90;;;;;;4957011;28;20041;-85
2022/01/19 12:59:41;;;;;;;125.25;56.65;;;5.50;99.90;;;;;;4973458;28;20100;-86
2022/01/19 13:02:07;;;;;;;112.28;48.75;;;5.40;99.90;;;;;;4956895;28;20047;-86
2022/01/19 13:04:34;;;;;;;116.90;52.53;;;5.40;99.90;;;;;;4990641;28;20408;-87
2022/01/19 13:07:23;;;;;;;118.80;53.22;;;5.40;99.90;;;;;;4956821;28;20050;-86
2022/01/19 13:10:11;;;;;;;105.72;51.63;;;5.40;99.90;;;;;;4990417;28;20062;-87
2022/01/19 13:12:48;;;;;;;101.13;46.30;;;5.40;99.90;;;;;;4973310;28;20403;-87
2022/01/19 13:15:14;;;;;;;108.28;50.72;;;5.60;99.90;;;;;;4943032;28;20495;-85
2022/01/19 13:17:46;;;;;;;107.47;52.10;;;5.50;99.90;;;;;;4973227;28;20050;-86
2022/01/19 13:20:22;;;;;;;101.68;47.47;;;5.50;99.90;;;;;;4989842;28;20056;-85
2022/01/19 13:22:55;;;;;;;113.03;51.83;;;5.60;99.90;;;;;;4972885;28;20500;-85
2022/01/19 13:25:23;;;;;;;98.93;45.08;;;5.60;99.90;;;;;;4973133;28;20398;-85
2022/01/19 13:27:49;;;;;;;88.38;43.80;;;5.70;99.90;;;;;;4990107;28;20337;-86
2022/01/19 13:30:15;;;;;;;99.15;43.58;;;5.80;99.90;;;;;;4989663;28;20064;-89
2022/01/19 13:32:41;;;;;;;86.20;44.15;;;5.90;99.90;;;;;;4989205;28;20046;-88
2022/01/19 13:35:10;;;;;;;96.95;45.17;;;5.80;99.90;;;;;;4989109;28;20369;-89
2022/01/19 13:37:37;;;;;;;83.88;37.22;;;5.90;99.90;;;;;;4956185;28;20046;-89
2022/01/19 13:40:07;;;;;;;91.68;45.63;;;5.90;99.90;;;;;;4989364;28;20047;-92
2022/01/19 13:42:44;;;;;;;86.03;40.88;;;5.90;99.90;;;;;;4990022;28;20048;-90
2022/01/19 13:45:18;;;;;;;83.88;40.72;;;6.10;99.90;;;;;;4971891;28;20400;-86
2022/01/19 13:48:03;;;;;;;86.13;42.85;;;6.00;99.90;;;;;;4968853;28;20074;-92
2022/01/19 13:50:29;;;;;;;77.82;40.17;;;6.00;99.90;;;;;;4952411;28;20099;-91
2022/01/19 13:52:55;;;;;;;80.55;41.63;;;6.00;99.90;;;;;;4966146;28;20143;-91
2022/01/19 13:55:21;;;;;;;76.78;39.92;;;6.60;99.90;;;;;;4952527;28;20500;-90
2022/01/19 13:57:47;;;;;;;63.33;30.73;;;5.90;99.90;;;;;;4970186;28;20054;-91
2022/01/19 14:00:18;;;;;;;66.78;30.13;;;6.10;99.90;;;;;;4952731;28;20092;-89
2022/01/19 14:02:58;;;;;;;75.40;39.85;;;6.00;99.90;;;;;;4969063;28;20051;-87
2022/01/19 14:05:41;;;;;;;82.88;41.65;;;6.00;99.90;;;;;;4953430;28;20527;-86
2022/01/19 14:08:07;;;;;;;66.55;32.83;;;5.90;99.90;;;;;;4968642;28;20086;-86
2022/01/19 14:10:49;;;;;;;76.22;37.45;;;5.90;99.90;;;;;;4968658;28;20516;-86
2022/01/19 14:13:37;;;;;;;70.35;38.00;;;6.00;99.90;;;;;;4952576;28;20477;-85